sensor_id;sensor_type;location;lat;lon;timestamp;temperature;humidity
8563;DHT22;16392;52.508;13.468;2023-04-06T00:02:21;4.20;1.00
8563;DHT22;16392;52.508;13.468;2023-04-06T00:04:48;4.20;1.00
8563;DHT22;16392;52.508;13.468;2023-04-06T00:07:15;4.20;1.00
8563;DHT22;16392;52.508;13.468;2023-04-06T00:09:41;4.20;99.90
8563;DHT22;16392;52.508;13.468;2023-04-06T00:12:09;4.20;1.00
8563;DHT22;16392;52.508;13.468;2023-04-06T00:14:35;4.20;99.90
8563;DHT22;16392;52.508;13.468;2023-04-06T00:17:02;4.20;1.00
8563;DHT22;16392;52.508;13.468;2023-04-06T00:19:28;4.20;1.00
8563;DHT22;16392;52.508;13.468;2023-04-06T00:21:55;4.20;99.90
8563;DHT22;16392;52.508;13.468;2023-04-06T00:24:21;4.20;99.90
8563;DHT22;16392;52.508;13.468;2023-04-06T00:26:48;4.10;99.90
8563;DHT22;16392;52.508;13.468;2023-04-06T00:29:16;4.10;99.90
8563;DHT22;16392;52.508;13.468;2023-04-06T00:31:42;4.10;99.90
8563;DHT22;16392;52.508;13.468;2023-04-06T00:34:09;4.10;99.90
8563;DHT22;16392;52.508;13.468;2023-04-06T00:36:35;4.10;99.90
8563;DHT22;16392;52.508;13.468;2023-04-06T00:39:02;4.10;99.90
8563;DHT22;16392;52.508;13.468;2023-04-06T00:41:28;4.10;99.90
8563;DHT22;16392;52.508;13.468;2023-04-06T00:43:55;4.10;99.90
8563;DHT22;16392;52.508;13.468;2023-04-06T00:46:22;4.00;99.90
8563;DHT22;16392;52.508;13.468;2023-04-06T00:48:49;4.00;1.00
8563;DHT22;16392;52.508;13.468;2023-04-06T00:51:17;4.00;1.00
8563;DHT22;16392;52.508;13.468;2023-04-06T00:53:43;4.00;1.00
8563;DHT22;16392;52.508;13.468;2023-04-06T00:56:10;4.00;1.00
8563;DHT22;16392;52.508;13.468;2023-04-06T00:58:36;4.00;1.00
8563;DHT22;16392;52.508;13.468;2023-04-06T01:01:04;4.00;1.00
8563;DHT22;16392;52.508;13.468;2023-04-06T01:03:32;4.00;1.00
8563;DHT22;16392;52.508;13.468;2023-04-06T01:05:58;3.90;1.00
8563;DHT22;16392;52.508;13.468;2023-04-06T01:08:31;3.90;1.00
8563;DHT22;16392;52.508;13.468;2023-04-06T01:10:58;3.90;1.00
8563;DHT22;16392;52.508;13.468;2023-04-06T01:13:26;3.90;1.00
8563;DHT22;16392;52.508;13.468;2023-04-06T01:15:52;3.80;1.00
8563;DHT22;16392;52.508;13.468;2023-04-06T01:18:24;3.80;1.00
8563;DHT22;16392;52.508;13.468;2023-04-06T01:20:52;3.80;1.00
8563;DHT22;16392;52.508;13.468;2023-04-06T01:23:20;3.90;1.00
8563;DHT22;16392;52.508;13.468;2023-04-06T01:25:47;3.80;1.00
8563;DHT22;16392;52.508;13.468;2023-04-06T01:28:13;3.80;1.00
8563;DHT22;16392;52.508;13.468;2023-04-06T01:30:40;3.80;1.00
8563;DHT22;16392;52.508;13.468;2023-04-06T01:33:07;3.80;1.00
8563;DHT22;16392;52.508;13.468;2023-04-06T01:35:33;3.80;1.00
8563;DHT22;16392;52.508;13.468;2023-04-06T01:38:00;3.80;1.00
8563;DHT22;16392;52.508;13.468;2023-04-06T01:40:28;3.80;1.00
8563;DHT22;16392;52.508;13.468;2023-04-06T01:42:54;3.70;93.30
8563;DHT22;16392;52.508;13.468;2023-04-06T01:45:21;3.70;99.90
8563;DHT22;16392;52.508;13.468;2023-04-06T01:47:47;3.60;99.90
8563;DHT22;16392;52.508;13.468;2023-04-06T01:50:14;3.50;1.00
8563;DHT22;16392;52.508;13.468;2023-04-06T01:52:40;3.60;1.00
8563;DHT22;16392;52.508;13.468;2023-04-06T01:55:07;3.50;1.00
8563;DHT22;16392;52.508;13.468;2023-04-06T01:57:35;3.60;1.00
8563;DHT22;16392;52.508;13.468;2023-04-06T02:00:01;3.60;1.00
8563;DHT22;16392;52.508;13.468;2023-04-06T02:02:28;3.60;1.00
8563;DHT22;16392;52.508;13.468;2023-04-06T02:04:54;3.60;1.00
8563;DHT22;16392;52.508;13.468;2023-04-06T02:07:21;3.50;1.00
8563;DHT22;16392;52.508;13.468;2023-04-06T02:09:47;3.50;1.00
8563;DHT22;16392;52.508;13.468;2023-04-06T02:12:14;3.50;1.00
8563;DHT22;16392;52.508;13.468;2023-04-06T02:14:42;3.50;1.00
8563;DHT22;16392;52.508;13.468;2023-04-06T02:17:08;3.50;1.00
8563;DHT22;16392;52.508;13.468;2023-04-06T02:19:35;3.40;1.00
8563;DHT22;16392;52.508;13.468;2023-04-06T02:22:02;3.40;1.00
8563;DHT22;16392;52.508;13.468;2023-04-06T02:24:28;3.40;1.00
8563;DHT22;16392;52.508;13.468;2023-04-06T02:26:55;3.30;1.00
8563;DHT22;16392;52.508;13.468;2023-04-06T02:29:21;3.30;1.00
8563;DHT22;16392;52.508;13.468;2023-04-06T02:31:49;3.30;1.00
8563;DHT22;16392;52.508;13.468;2023-04-06T02:34:15;3.30;1.00
8563;DHT22;16392;52.508;13.468;2023-04-06T02:36:42;3.30;1.00
8563;DHT22;16392;52.508;13.468;2023-04-06T02:39:09;3.20;1.00
8563;DHT22;16392;52.508;13.468;2023-04-06T02:41:36;3.20;99.90
8563;DHT22;16392;52.508;13.468;2023-04-06T02:44:02;3.20;99.90
8563;DHT22;16392;52.508;13.468;2023-04-06T02:46:29;3.20;95.50
8563;DHT22;16392;52.508;13.468;2023-04-06T02:48:57;3.10;99.90
8563;DHT22;16392;52.508;13.468;2023-04-06T02:51:25;3.10;1.00
8563;DHT22;16392;52.508;13.468;2023-04-06T02:53:52;3.00;1.00
8563;DHT22;16392;52.508;13.468;2023-04-06T02:56:18;3.00;1.00
8563;DHT22;16392;52.508;13.468;2023-04-06T02:58:46;3.00;1.00
8563;DHT22;16392;52.508;13.468;2023-04-06T03:01:12;3.00;99.90
8563;DHT22;16392;52.508;13.468;2023-04-06T03:03:39;3.00;99.90
8563;DHT22;16392;52.508;13.468;2023-04-06T03:06:07;3.00;99.90
8563;DHT22;16392;52.508;13.468;2023-04-06T03:08:33;2.90;1.00
8563;DHT22;16392;52.508;13.468;2023-04-06T03:11:00;2.90;99.90
8563;DHT22;16392;52.508;13.468;2023-04-06T03:13:26;2.80;1.00
8563;DHT22;16392;52.508;13.468;2023-04-06T03:15:53;2.80;99.90
8563;DHT22;16392;52.508;13.468;2023-04-06T03:18:21;2.80;99.90
8563;DHT22;16392;52.508;13.468;2023-04-06T03:20:47;2.80;1.00
8563;DHT22;16392;52.508;13.468;2023-04-06T03:23:15;2.70;1.00
8563;DHT22;16392;52.508;13.468;2023-04-06T03:25:42;2.60;99.90
8563;DHT22;16392;52.508;13.468;2023-04-06T03:28:08;2.50;99.90
8563;DHT22;16392;52.508;13.468;2023-04-06T03:30:35;2.40;1.00
8563;DHT22;16392;52.508;13.468;2023-04-06T03:33:02;2.40;99.90
8563;DHT22;16392;52.508;13.468;2023-04-06T03:35:29;2.40;1.00
8563;DHT22;16392;52.508;13.468;2023-04-06T03:37:55;2.40;99.90
8563;DHT22;16392;52.508;13.468;2023-04-06T03:40:24;2.30;99.90
8563;DHT22;16392;52.508;13.468;2023-04-06T03:42:50;2.30;99.90
8563;DHT22;16392;52.508;13.468;2023-04-06T03:45:17;2.20;1.00
8563;DHT22;16392;52.508;13.468;2023-04-06T03:47:43;2.20;1.00
8563;DHT22;16392;52.508;13.468;2023-04-06T03:50:10;2.10;99.90
8563;DHT22;16392;52.508;13.468;2023-04-06T03:52:36;2.00;1.00
8563;DHT22;16392;52.508;13.468;2023-04-06T03:55:03;2.00;99.90
8563;DHT22;16392;52.508;13.468;2023-04-06T03:57:31;2.00;1.00
8563;DHT22;16392;52.508;13.468;2023-04-06T03:59:57;1.90;99.90
8563;DHT22;16392;52.508;13.468;2023-04-06T04:02:25;2.00;1.00
8563;DHT22;16392;52.508;13.468;2023-04-06T04:04:51;1.90;1.00
8563;DHT22;16392;52.508;13.468;2023-04-06T04:07:17;1.90;1.00
8563;DHT22;16392;52.508;13.468;2023-04-06T04:09:44;1.90;1.00
8563;DHT22;16392;52.508;13.468;2023-04-06T04:12:11;1.80;80.50
8563;DHT22;16392;52.508;13.468;2023-04-06T04:14:38;1.70;99.90
8563;DHT22;16392;52.508;13.468;2023-04-06T04:17:05;1.60;1.00
8563;DHT22;16392;52.508;13.468;2023-04-06T04:19:31;1.60;1.00
8563;DHT22;16392;52.508;13.468;2023-04-06T04:21:58;1.60;1.00
8563;DHT22;16392;52.508;13.468;2023-04-06T04:24:24;1.60;13.30
8563;DHT22;16392;52.508;13.468;2023-04-06T04:26:51;1.60;92.80
8563;DHT22;16392;52.508;13.468;2023-04-06T04:29:17;1.60;99.90
8563;DHT22;16392;52.508;13.468;2023-04-06T04:31:47;1.60;99.90
8563;DHT22;16392;52.508;13.468;2023-04-06T04:34:14;1.60;99.90
8563;DHT22;16392;52.508;13.468;2023-04-06T04:36:41;1.60;99.90
8563;DHT22;16392;52.508;13.468;2023-04-06T04:39:07;1.50;99.90
8563;DHT22;16392;52.508;13.468;2023-04-06T04:41:34;1.60;99.90
8563;DHT22;16392;52.508;13.468;2023-04-06T04:44:01;1.60;99.90
8563;DHT22;16392;52.508;13.468;2023-04-06T04:46:27;1.60;99.90
8563;DHT22;16392;52.508;13.468;2023-04-06T04:48:55;1.60;99.90
8563;DHT22;16392;52.508;13.468;2023-04-06T04:51:22;1.60;99.90
8563;DHT22;16392;52.508;13.468;2023-04-06T04:53:49;1.60;99.90
8563;DHT22;16392;52.508;13.468;2023-04-06T04:56:16;1.60;99.90
8563;DHT22;16392;52.508;13.468;2023-04-06T04:58:42;1.60;99.90
8563;DHT22;16392;52.508;13.468;2023-04-06T05:01:09;1.70;99.90
8563;DHT22;16392;52.508;13.468;2023-04-06T05:03:35;1.70;99.90
8563;DHT22;16392;52.508;13.468;2023-04-06T05:06:05;1.80;99.90
8563;DHT22;16392;52.508;13.468;2023-04-06T05:08:32;2.20;99.90
8563;DHT22;16392;52.508;13.468;2023-04-06T05:10:58;2.90;1.00
8563;DHT22;16392;52.508;13.468;2023-04-06T05:13:25;3.70;1.00
8563;DHT22;16392;52.508;13.468;2023-04-06T05:15:51;4.40;99.90
8563;DHT22;16392;52.508;13.468;2023-04-06T05:18:18;5.00;99.90
8563;DHT22;16392;52.508;13.468;2023-04-06T05:20:44;5.40;99.90
8563;DHT22;16392;52.508;13.468;2023-04-06T05:23:13;5.80;99.90
8563;DHT22;16392;52.508;13.468;2023-04-06T05:25:39;6.20;99.90
8563;DHT22;16392;52.508;13.468;2023-04-06T05:28:06;6.40;1.00
8563;DHT22;16392;52.508;13.468;2023-04-06T05:30:32;6.90;1.00
8563;DHT22;16392;52.508;13.468;2023-04-06T05:33:00;7.00;1.00
8563;DHT22;16392;52.508;13.468;2023-04-06T05:35:27;7.30;99.90
8563;DHT22;16392;52.508;13.468;2023-04-06T05:37:54;7.70;99.90
8563;DHT22;16392;52.508;13.468;2023-04-06T05:40:21;8.20;99.90
8563;DHT22;16392;52.508;13.468;2023-04-06T05:42:48;8.10;99.90
8563;DHT22;16392;52.508;13.468;2023-04-06T05:45:16;8.50;99.90
8563;DHT22;16392;52.508;13.468;2023-04-06T05:47:44;8.40;64.00
8563;DHT22;16392;52.508;13.468;2023-04-06T05:50:10;8.50;35.80
8563;DHT22;16392;52.508;13.468;2023-04-06T05:52:37;8.40;26.40
8563;DHT22;16392;52.508;13.468;2023-04-06T05:55:04;8.40;24.00
8563;DHT22;16392;52.508;13.468;2023-04-06T05:57:32;8.50;1.00
8563;DHT22;16392;52.508;13.468;2023-04-06T05:59:59;8.60;1.00
8563;DHT22;16392;52.508;13.468;2023-04-06T06:02:25;9.30;1.00
8563;DHT22;16392;52.508;13.468;2023-04-06T06:04:51;9.30;1.00
8563;DHT22;16392;52.508;13.468;2023-04-06T06:07:18;9.30;1.00
8563;DHT22;16392;52.508;13.468;2023-04-06T06:09:45;9.50;1.00
8563;DHT22;16392;52.508;13.468;2023-04-06T06:12:11;10.00;1.00
8563;DHT22;16392;52.508;13.468;2023-04-06T06:14:39;10.30;1.00
8563;DHT22;16392;52.508;13.468;2023-04-06T06:17:06;9.90;1.00
8563;DHT22;16392;52.508;13.468;2023-04-06T06:19:32;9.50;1.00
8563;DHT22;16392;52.508;13.468;2023-04-06T06:21:59;9.70;1.00
8563;DHT22;16392;52.508;13.468;2023-04-06T06:24:27;10.40;1.00
8563;DHT22;16392;52.508;13.468;2023-04-06T06:26:54;10.30;99.90
8563;DHT22;16392;52.508;13.468;2023-04-06T06:29:21;10.50;99.90
8563;DHT22;16392;52.508;13.468;2023-04-06T06:31:50;10.80;99.90
8563;DHT22;16392;52.508;13.468;2023-04-06T06:34:16;11.10;99.90
8563;DHT22;16392;52.508;13.468;2023-04-06T06:36:43;11.20;99.90
8563;DHT22;16392;52.508;13.468;2023-04-06T06:39:10;10.60;99.90
8563;DHT22;16392;52.508;13.468;2023-04-06T06:41:36;10.30;99.90
8563;DHT22;16392;52.508;13.468;2023-04-06T06:44:03;11.20;99.90
8563;DHT22;16392;52.508;13.468;2023-04-06T06:46:29;11.90;99.90
8563;DHT22;16392;52.508;13.468;2023-04-06T06:48:58;11.30;99.90
8563;DHT22;16392;52.508;13.468;2023-04-06T06:51:24;11.50;99.90
8563;DHT22;16392;52.508;13.468;2023-04-06T06:53:51;11.00;99.90
8563;DHT22;16392;52.508;13.468;2023-04-06T06:56:17;11.50;99.90
8563;DHT22;16392;52.508;13.468;2023-04-06T06:58:44;11.90;99.90
8563;DHT22;16392;52.508;13.468;2023-04-06T07:01:10;13.00;96.70
8563;DHT22;16392;52.508;13.468;2023-04-06T07:03:37;13.70;92.90
8563;DHT22;16392;52.508;13.468;2023-04-06T07:06:04;13.80;84.10
8563;DHT22;16392;52.508;13.468;2023-04-06T07:08:31;13.70;75.00
8563;DHT22;16392;52.508;13.468;2023-04-06T07:10:58;11.70;70.20
8563;DHT22;16392;52.508;13.468;2023-04-06T07:13:24;12.20;75.50
8563;DHT22;16392;52.508;13.468;2023-04-06T07:15:52;12.40;70.70
8563;DHT22;16392;52.508;13.468;2023-04-06T07:18:19;11.80;67.50
8563;DHT22;16392;52.508;13.468;2023-04-06T07:20:46;12.10;68.10
8563;DHT22;16392;52.508;13.468;2023-04-06T07:23:14;12.10;66.50
8563;DHT22;16392;52.508;13.468;2023-04-06T07:25:40;12.50;62.60
8563;DHT22;16392;52.508;13.468;2023-04-06T07:28:07;12.50;62.60
8563;DHT22;16392;52.508;13.468;2023-04-06T07:30:33;13.00;61.40
8563;DHT22;16392;52.508;13.468;2023-04-06T07:33:00;12.80;56.60
8563;DHT22;16392;52.508;13.468;2023-04-06T07:35:27;12.60;55.30
8563;DHT22;16392;52.508;13.468;2023-04-06T07:37:55;12.30;55.50
8563;DHT22;16392;52.508;13.468;2023-04-06T07:40:23;12.40;81.60
8563;DHT22;16392;52.508;13.468;2023-04-06T07:42:51;11.90;54.90
8563;DHT22;16392;52.508;13.468;2023-04-06T07:45:18;11.90;51.90
8563;DHT22;16392;52.508;13.468;2023-04-06T07:47:44;12.30;54.10
8563;DHT22;16392;52.508;13.468;2023-04-06T07:50:11;12.70;52.60
8563;DHT22;16392;52.508;13.468;2023-04-06T07:52:38;12.70;50.60
8563;DHT22;16392;52.508;13.468;2023-04-06T07:55:04;12.80;74.30
8563;DHT22;16392;52.508;13.468;2023-04-06T07:57:32;13.60;49.00
8563;DHT22;16392;52.508;13.468;2023-04-06T07:59:59;12.90;43.60
8563;DHT22;16392;52.508;13.468;2023-04-06T08:02:26;12.70;42.60
8563;DHT22;16392;52.508;13.468;2023-04-06T08:04:52;13.20;47.10
8563;DHT22;16392;52.508;13.468;2023-04-06T08:07:18;13.40;40.80
8563;DHT22;16392;52.508;13.468;2023-04-06T08:09:45;12.70;37.10
8563;DHT22;16392;52.508;13.468;2023-04-06T08:12:12;12.40;36.00
8563;DHT22;16392;52.508;13.468;2023-04-06T08:14:40;12.60;34.40
8563;DHT22;16392;52.508;13.468;2023-04-06T08:17:07;12.90;35.10
8563;DHT22;16392;52.508;13.468;2023-04-06T08:19:33;13.00;35.90
8563;DHT22;16392;52.508;13.468;2023-04-06T08:22:00;12.80;33.60
8563;DHT22;16392;52.508;13.468;2023-04-06T08:24:27;12.80;32.00
8563;DHT22;16392;52.508;13.468;2023-04-06T08:26:53;13.10;32.20
8563;DHT22;16392;52.508;13.468;2023-04-06T08:29:20;12.30;26.90
8563;DHT22;16392;52.508;13.468;2023-04-06T08:31:47;13.00;30.00
8563;DHT22;16392;52.508;13.468;2023-04-06T08:34:14;13.00;26.50
8563;DHT22;16392;52.508;13.468;2023-04-06T08:36:42;12.80;24.90
8563;DHT22;16392;52.508;13.468;2023-04-06T08:39:08;13.30;27.10
8563;DHT22;16392;52.508;13.468;2023-04-06T08:41:35;12.70;23.60
8563;DHT22;16392;52.508;13.468;2023-04-06T08:44:02;13.20;25.80
8563;DHT22;16392;52.508;13.468;2023-04-06T08:46:29;13.40;22.90
8563;DHT22;16392;52.508;13.468;2023-04-06T08:48:58;13.20;20.80
8563;DHT22;16392;52.508;13.468;2023-04-06T08:51:25;13.50;23.10
8563;DHT22;16392;52.508;13.468;2023-04-06T08:53:52;13.00;19.60
8563;DHT22;16392;52.508;13.468;2023-04-06T08:56:19;12.50;18.80
8563;DHT22;16392;52.508;13.468;2023-04-06T08:58:47;12.40;16.20
8563;DHT22;16392;52.508;13.468;2023-04-06T09:01:13;12.90;18.30
8563;DHT22;16392;52.508;13.468;2023-04-06T09:03:40;13.30;18.30
8563;DHT22;16392;52.508;13.468;2023-04-06T09:06:09;13.30;15.60
8563;DHT22;16392;52.508;13.468;2023-04-06T09:08:38;12.90;16.80
8563;DHT22;16392;52.508;13.468;2023-04-06T09:11:04;13.30;17.90
8563;DHT22;16392;52.508;13.468;2023-04-06T09:13:31;14.30;18.60
8563;DHT22;16392;52.508;13.468;2023-04-06T09:15:58;14.40;15.40
8563;DHT22;16392;52.508;13.468;2023-04-06T09:18:29;13.90;13.20
8563;DHT22;16392;52.508;13.468;2023-04-06T09:20:56;13.60;14.70
8563;DHT22;16392;52.508;13.468;2023-04-06T09:23:30;14.30;14.50
8563;DHT22;16392;52.508;13.468;2023-04-06T09:26:07;13.80;11.50
8563;DHT22;16392;52.508;13.468;2023-04-06T09:28:43;13.90;12.90
8563;DHT22;16392;52.508;13.468;2023-04-06T09:31:11;14.00;10.50
8563;DHT22;16392;52.508;13.468;2023-04-06T09:33:38;13.50;12.90
8563;DHT22;16392;52.508;13.468;2023-04-06T09:36:05;12.80;11.10
8563;DHT22;16392;52.508;13.468;2023-04-06T09:38:33;12.20;6.60
8563;DHT22;16392;52.508;13.468;2023-04-06T09:41:00;12.60;6.40
8563;DHT22;16392;52.508;13.468;2023-04-06T09:43:26;13.60;10.20
8563;DHT22;16392;52.508;13.468;2023-04-06T09:45:53;14.30;9.40
8563;DHT22;16392;52.508;13.468;2023-04-06T09:48:21;14.00;6.50
8563;DHT22;16392;52.508;13.468;2023-04-06T09:50:48;14.00;25.90
8563;DHT22;16392;52.508;13.468;2023-04-06T09:53:15;13.20;8.10
8563;DHT22;16392;52.508;13.468;2023-04-06T09:55:44;12.90;3.20
8563;DHT22;16392;52.508;13.468;2023-04-06T09:58:12;12.40;5.30
8563;DHT22;16392;52.508;13.468;2023-04-06T10:00:42;11.70;5.00
8563;DHT22;16392;52.508;13.468;2023-04-06T10:03:11;11.90;2.40
8563;DHT22;16392;52.508;13.468;2023-04-06T10:05:42;12.40;3.30
8563;DHT22;16392;52.508;13.468;2023-04-06T10:08:10;12.20;2.50
8563;DHT22;16392;52.508;13.468;2023-04-06T10:10:37;12.70;4.60
8563;DHT22;16392;52.508;13.468;2023-04-06T10:13:06;13.30;8.10
8563;DHT22;16392;52.508;13.468;2023-04-06T10:15:33;12.50;4.30
8563;DHT22;16392;52.508;13.468;2023-04-06T10:18:00;12.50;4.40
8563;DHT22;16392;52.508;13.468;2023-04-06T10:20:28;12.80;4.10
8563;DHT22;16392;52.508;13.468;2023-04-06T10:22:58;13.10;5.10
8563;DHT22;16392;52.508;13.468;2023-04-06T10:25:29;14.40;8.10
8563;DHT22;16392;52.508;13.468;2023-04-06T10:28:01;12.80;1.00
8563;DHT22;16392;52.508;13.468;2023-04-06T10:30:31;11.80;1.00
8563;DHT22;16392;52.508;13.468;2023-04-06T10:32:58;11.50;1.00
8563;DHT22;16392;52.508;13.468;2023-04-06T10:35:25;11.60;1.00
8563;DHT22;16392;52.508;13.468;2023-04-06T10:38:03;11.30;1.00
8563;DHT22;16392;52.508;13.468;2023-04-06T10:40:29;11.50;1.00
8563;DHT22;16392;52.508;13.468;2023-04-06T10:43:06;10.90;1.00
8563;DHT22;16392;52.508;13.468;2023-04-06T10:45:34;12.50;2.30
8563;DHT22;16392;52.508;13.468;2023-04-06T10:48:12;14.10;4.40
8563;DHT22;16392;52.508;13.468;2023-04-06T10:50:39;13.80;1.00
8563;DHT22;16392;52.508;13.468;2023-04-06T10:53:06;13.60;1.00
8563;DHT22;16392;52.508;13.468;2023-04-06T10:55:34;13.40;1.00
8563;DHT22;16392;52.508;13.468;2023-04-06T10:58:01;13.50;1.00
8563;DHT22;16392;52.508;13.468;2023-04-06T11:00:28;13.60;17.20
8563;DHT22;16392;52.508;13.468;2023-04-06T11:03:00;13.50;1.00
8563;DHT22;16392;52.508;13.468;2023-04-06T11:05:27;12.50;1.00
8563;DHT22;16392;52.508;13.468;2023-04-06T11:07:54;12.90;1.00
8563;DHT22;16392;52.508;13.468;2023-04-06T11:10:21;13.60;1.00
8563;DHT22;16392;52.508;13.468;2023-04-06T11:12:52;13.90;1.00
8563;DHT22;16392;52.508;13.468;2023-04-06T11:15:18;14.30;1.00
8563;DHT22;16392;52.508;13.468;2023-04-06T11:17:45;14.60;1.00
8563;DHT22;16392;52.508;13.468;2023-04-06T11:20:13;14.60;1.00
8563;DHT22;16392;52.508;13.468;2023-04-06T11:22:47;14.40;1.00
8563;DHT22;16392;52.508;13.468;2023-04-06T11:25:14;14.70;1.00
8563;DHT22;16392;52.508;13.468;2023-04-06T11:27:42;14.40;1.00
8563;DHT22;16392;52.508;13.468;2023-04-06T11:30:09;14.70;1.00
8563;DHT22;16392;52.508;13.468;2023-04-06T11:32:39;14.40;1.00
8563;DHT22;16392;52.508;13.468;2023-04-06T11:35:06;14.00;1.00
8563;DHT22;16392;52.508;13.468;2023-04-06T11:37:34;13.50;1.00
8563;DHT22;16392;52.508;13.468;2023-04-06T11:40:00;13.30;1.00
8563;DHT22;16392;52.508;13.468;2023-04-06T11:42:27;13.10;1.00
8563;DHT22;16392;52.508;13.468;2023-04-06T11:44:55;13.70;1.00
8563;DHT22;16392;52.508;13.468;2023-04-06T11:47:27;13.80;1.00
8563;DHT22;16392;52.508;13.468;2023-04-06T11:49:53;13.50;12.00
8563;DHT22;16392;52.508;13.468;2023-04-06T11:52:21;13.80;1.00
8563;DHT22;16392;52.508;13.468;2023-04-06T11:54:50;13.80;1.00
8563;DHT22;16392;52.508;13.468;2023-04-06T11:57:18;13.40;1.00
8563;DHT22;16392;52.508;13.468;2023-04-06T11:59:45;12.80;1.00
8563;DHT22;16392;52.508;13.468;2023-04-06T12:02:11;11.80;1.00
8563;DHT22;16392;52.508;13.468;2023-04-06T12:04:38;11.30;1.00
8563;DHT22;16392;52.508;13.468;2023-04-06T12:07:04;11.50;1.00
8563;DHT22;16392;52.508;13.468;2023-04-06T12:09:32;11.90;1.00
8563;DHT22;16392;52.508;13.468;2023-04-06T12:12:01;12.70;1.00
8563;DHT22;16392;52.508;13.468;2023-04-06T12:14:27;13.50;1.00
8563;DHT22;16392;52.508;13.468;2023-04-06T12:16:55;13.40;1.00
8563;DHT22;16392;52.508;13.468;2023-04-06T12:19:23;13.80;1.00
8563;DHT22;16392;52.508;13.468;2023-04-06T12:21:51;13.70;1.00
8563;DHT22;16392;52.508;13.468;2023-04-06T12:24:18;13.70;1.00
8563;DHT22;16392;52.508;13.468;2023-04-06T12:26:44;13.70;1.00
8563;DHT22;16392;52.508;13.468;2023-04-06T12:29:13;13.60;1.00
8563;DHT22;16392;52.508;13.468;2023-04-06T12:31:40;13.10;1.00
8563;DHT22;16392;52.508;13.468;2023-04-06T12:34:08;13.50;1.00
8563;DHT22;16392;52.508;13.468;2023-04-06T12:36:34;13.30;1.00
8563;DHT22;16392;52.508;13.468;2023-04-06T12:39:02;12.60;7.50
8563;DHT22;16392;52.508;13.468;2023-04-06T12:41:29;12.30;1.00
8563;DHT22;16392;52.508;13.468;2023-04-06T12:43:55;12.30;1.00
8563;DHT22;16392;52.508;13.468;2023-04-06T12:46:23;12.30;1.00
8563;DHT22;16392;52.508;13.468;2023-04-06T12:48:50;12.30;1.00
8563;DHT22;16392;52.508;13.468;2023-04-06T12:51:18;12.90;1.00
8563;DHT22;16392;52.508;13.468;2023-04-06T12:53:45;13.00;1.00
8563;DHT22;16392;52.508;13.468;2023-04-06T12:56:12;13.00;1.00
8563;DHT22;16392;52.508;13.468;2023-04-06T12:58:39;12.50;1.00
8563;DHT22;16392;52.508;13.468;2023-04-06T13:01:07;12.20;1.00
8563;DHT22;16392;52.508;13.468;2023-04-06T13:03:34;12.50;1.00
8563;DHT22;16392;52.508;13.468;2023-04-06T13:06:01;12.20;1.00
8563;DHT22;16392;52.508;13.468;2023-04-06T13:08:28;12.30;1.00
8563;DHT22;16392;52.508;13.468;2023-04-06T13:10:54;12.60;1.00
8563;DHT22;16392;52.508;13.468;2023-04-06T13:13:22;12.80;1.00
8563;DHT22;16392;52.508;13.468;2023-04-06T13:15:49;13.10;1.00
8563;DHT22;16392;52.508;13.468;2023-04-06T13:18:15;13.40;9.80
8563;DHT22;16392;52.508;13.468;2023-04-06T13:20:43;13.40;1.00
8563;DHT22;16392;52.508;13.468;2023-04-06T13:23:10;13.00;1.00
8563;DHT22;16392;52.508;13.468;2023-04-06T13:25:37;12.70;1.00
8563;DHT22;16392;52.508;13.468;2023-04-06T13:28:03;12.90;1.00
8563;DHT22;16392;52.508;13.468;2023-04-06T13:30:30;13.30;1.00
8563;DHT22;16392;52.508;13.468;2023-04-06T13:32:56;13.30;1.00
8563;DHT22;16392;52.508;13.468;2023-04-06T13:35:23;13.50;1.00
8563;DHT22;16392;52.508;13.468;2023-04-06T13:37:51;13.50;1.00
8563;DHT22;16392;52.508;13.468;2023-04-06T13:40:17;13.40;1.00
8563;DHT22;16392;52.508;13.468;2023-04-06T13:42:44;13.50;1.00
8563;DHT22;16392;52.508;13.468;2023-04-06T13:45:11;13.00;1.00
8563;DHT22;16392;52.508;13.468;2023-04-06T13:47:37;12.80;1.00
8563;DHT22;16392;52.508;13.468;2023-04-06T13:50:05;12.70;1.00
8563;DHT22;16392;52.508;13.468;2023-04-06T13:52:32;12.40;1.00
8563;DHT22;16392;52.508;13.468;2023-04-06T13:54:59;12.50;1.00
8563;DHT22;16392;52.508;13.468;2023-04-06T13:57:27;12.80;1.00
8563;DHT22;16392;52.508;13.468;2023-04-06T13:59:54;13.20;1.00
8563;DHT22;16392;52.508;13.468;2023-04-06T14:02:21;13.30;1.00
8563;DHT22;16392;52.508;13.468;2023-04-06T14:04:52;13.10;1.00
8563;DHT22;16392;52.508;13.468;2023-04-06T14:07:19;13.30;1.00
8563;DHT22;16392;52.508;13.468;2023-04-06T14:09:45;12.90;1.00
8563;DHT22;16392;52.508;13.468;2023-04-06T14:12:13;12.60;1.00
8563;DHT22;16392;52.508;13.468;2023-04-06T14:14:40;12.20;1.00
8563;DHT22;16392;52.508;13.468;2023-04-06T14:17:06;11.90;1.00
8563;DHT22;16392;52.508;13.468;2023-04-06T14:19:33;12.40;1.00
8563;DHT22;16392;52.508;13.468;2023-04-06T14:21:59;12.30;1.00
8563;DHT22;16392;52.508;13.468;2023-04-06T14:24:26;12.00;1.00
8563;DHT22;16392;52.508;13.468;2023-04-06T14:26:52;11.40;1.00
8563;DHT22;16392;52.508;13.468;2023-04-06T14:29:20;11.50;1.00
8563;DHT22;16392;52.508;13.468;2023-04-06T14:31:47;12.00;1.00
8563;DHT22;16392;52.508;13.468;2023-04-06T14:34:13;12.30;1.00
8563;DHT22;16392;52.508;13.468;2023-04-06T14:36:41;11.90;1.00
8563;DHT22;16392;52.508;13.468;2023-04-06T14:39:07;11.60;1.00
8563;DHT22;16392;52.508;13.468;2023-04-06T14:41:35;11.50;1.00
8563;DHT22;16392;52.508;13.468;2023-04-06T14:44:01;11.40;1.00
8563;DHT22;16392;52.508;13.468;2023-04-06T14:46:29;11.30;1.00
8563;DHT22;16392;52.508;13.468;2023-04-06T14:48:56;11.40;1.00
8563;DHT22;16392;52.508;13.468;2023-04-06T14:51:23;11.40;1.00
8563;DHT22;16392;52.508;13.468;2023-04-06T14:53:50;11.40;1.00
8563;DHT22;16392;52.508;13.468;2023-04-06T14:56:19;11.50;1.00
8563;DHT22;16392;52.508;13.468;2023-04-06T14:58:47;11.40;1.00
8563;DHT22;16392;52.508;13.468;2023-04-06T15:01:14;11.30;1.00
8563;DHT22;16392;52.508;13.468;2023-04-06T15:03:41;11.30;1.00
8563;DHT22;16392;52.508;13.468;2023-04-06T15:06:11;11.10;1.00
8563;DHT22;16392;52.508;13.468;2023-04-06T15:08:40;11.10;1.00
8563;DHT22;16392;52.508;13.468;2023-04-06T15:11:06;10.90;1.00
8563;DHT22;16392;52.508;13.468;2023-04-06T15:13:33;11.00;1.00
8563;DHT22;16392;52.508;13.468;2023-04-06T15:15:59;10.90;1.00
8563;DHT22;16392;52.508;13.468;2023-04-06T15:18:26;11.00;1.00
8563;DHT22;16392;52.508;13.468;2023-04-06T15:20:54;11.10;1.00
8563;DHT22;16392;52.508;13.468;2023-04-06T15:23:20;11.10;1.00
8563;DHT22;16392;52.508;13.468;2023-04-06T15:25:47;11.00;1.00
8563;DHT22;16392;52.508;13.468;2023-04-06T15:28:13;11.10;1.00
8563;DHT22;16392;52.508;13.468;2023-04-06T15:30:39;11.10;1.00
8563;DHT22;16392;52.508;13.468;2023-04-06T15:33:06;11.10;1.00
8563;DHT22;16392;52.508;13.468;2023-04-06T15:35:33;11.10;1.00
8563;DHT22;16392;52.508;13.468;2023-04-06T15:38:05;11.00;1.00
8563;DHT22;16392;52.508;13.468;2023-04-06T15:40:32;10.90;1.00
8563;DHT22;16392;52.508;13.468;2023-04-06T15:42:59;10.90;1.00
8563;DHT22;16392;52.508;13.468;2023-04-06T15:45:25;10.90;1.00
8563;DHT22;16392;52.508;13.468;2023-04-06T15:47:52;10.90;1.00